Arlington, Washington
Current Conditions -  °F | °C
As of 11:35 AM on Friday 31 Oct 2014 (Local Time) from KAWO Reporting Station
Overcast Overcast  
Wind Chill: 52°   Ceiling: 6500
Heat Index: 52°   Visibility: 9mi
Dew Point: 46°   Wind: 3mph
Humidity: 82%   Direction: 100°E
Pressure: 29.8"   Gusts: NA
Location:  48.2°N, 122.13°W
Report Text: KAWO 311835Z AUTO 10003KT 9SM FEW046 SCT060 OVC065 11/08 A2980 RMK AO1 P0003
Loading
Personal Weather Stations






























Interactive Weather Map
Tropical Storm Tracking
New forecast layout! Learn more

10-Day Weather Forecast

Advertisements
Track Severe Weather on mobile